createdAt,value
2019-05-25T00:03:30.978Z,6.17
2019-05-25T00:08:34.677Z,6.87
2019-05-25T00:13:39.952Z,6.70
2019-05-25T00:18:43.693Z,6.63
2019-05-25T00:23:49.279Z,6.83
2019-05-25T00:28:56.914Z,5.97
2019-05-25T00:34:00.537Z,5.67
2019-05-25T00:39:06.336Z,6.43
2019-05-25T00:44:11.598Z,6.47
2019-05-25T00:49:15.771Z,6.67
2019-05-25T00:54:27.910Z,6.83
2019-05-25T00:59:27.690Z,6.50
2019-05-25T01:04:31.309Z,5.83
2019-05-25T01:09:44.939Z,6.43
2019-05-25T01:14:54.543Z,5.33
2019-05-25T01:19:58.687Z,5.90
2019-05-25T01:25:02.372Z,5.87
2019-05-25T01:30:10.840Z,6.20
2019-05-25T01:35:14.622Z,5.83
2019-05-25T01:40:20.805Z,5.70
2019-05-25T01:45:24.414Z,5.93
2019-05-25T01:50:28.118Z,6.00
2019-05-25T01:55:31.706Z,6.23
2019-05-25T02:00:35.381Z,6.00
2019-05-25T02:05:39.030Z,5.37
2019-05-25T02:10:42.722Z,5.90
2019-05-25T02:15:50.908Z,6.30
2019-05-25T02:20:56.175Z,6.73
2019-05-25T02:26:00.667Z,5.80
2019-05-25T02:31:04.347Z,5.70
2019-05-25T02:36:16.927Z,6.53
2019-05-25T02:41:20.596Z,5.87
2019-05-25T02:46:25.899Z,6.13
2019-05-25T02:51:33.547Z,6.13
2019-05-25T02:56:44.478Z,6.37
2019-05-25T03:01:48.226Z,6.67
2019-05-25T03:06:52.563Z,6.00
2019-05-25T03:11:59.366Z,6.87
2019-05-25T03:17:03.047Z,6.67
2019-05-25T03:22:06.601Z,6.10
2019-05-25T03:27:10.217Z,6.60
2019-05-25T03:32:13.913Z,5.80
2019-05-25T03:37:17.548Z,7.03
2019-05-25T03:42:21.233Z,8.20
2019-05-25T03:47:24.844Z,8.30
2019-05-25T03:52:28.443Z,7.20
2019-05-25T03:57:32.051Z,8.00
2019-05-25T04:02:35.757Z,7.20
2019-05-25T04:07:39.345Z,7.70
2019-05-25T04:12:42.957Z,8.70
2019-05-25T04:17:46.833Z,8.00
2019-05-25T04:22:50.435Z,7.07
2019-05-25T04:27:54.038Z,8.50
2019-05-25T04:32:57.666Z,8.10
2019-05-25T04:38:10.366Z,9.90
2019-05-25T04:43:17.099Z,11.10
2019-05-25T04:48:20.715Z,8.43
2019-05-25T04:53:24.328Z,8.33
2019-05-25T04:58:28.111Z,8.93
2019-05-25T05:03:32.625Z,8.93
2019-05-25T05:08:36.259Z,9.67
2019-05-25T05:13:39.861Z,10.03
2019-05-25T05:18:43.506Z,10.50
2019-05-25T05:23:47.123Z,9.10
2019-05-25T05:28:50.809Z,9.17
2019-05-25T05:33:54.422Z,9.73
2019-05-25T05:38:58.871Z,9.80
2019-05-25T05:44:04.404Z,10.07
2019-05-25T05:49:10.028Z,9.40
2019-05-25T05:54:15.248Z,10.73
2019-05-25T05:59:18.855Z,10.67
2019-05-25T06:04:22.459Z,10.83
2019-05-25T06:09:26.062Z,10.90
2019-05-25T06:14:29.672Z,11.70
2019-05-25T06:19:33.350Z,11.23
2019-05-25T06:24:36.960Z,12.60
2019-05-25T06:29:40.556Z,10.90
2019-05-25T06:34:44.168Z,11.80
2019-05-25T06:39:47.783Z,12.40
2019-05-25T06:44:51.408Z,13.30
2019-05-25T06:49:55.002Z,13.80
2019-05-25T06:54:58.638Z,13.50
2019-05-25T07:00:02.267Z,14.13
2019-05-25T07:05:08.239Z,12.40
2019-05-25T07:10:12.004Z,13.77
2019-05-25T07:15:15.751Z,13.90
2019-05-25T07:20:19.538Z,13.70
2019-05-25T07:25:23.146Z,13.13
2019-05-25T07:30:26.836Z,13.90
2019-05-25T07:35:30.450Z,13.30
2019-05-25T07:40:34.078Z,12.40
2019-05-25T07:45:37.697Z,12.50
2019-05-25T07:50:41.387Z,11.87
2019-05-25T07:55:45.012Z,13.27
2019-05-25T08:00:48.620Z,13.40
2019-05-25T08:05:52.230Z,13.80
2019-05-25T08:10:55.846Z,12.63
2019-05-25T08:15:59.521Z,12.20
2019-05-25T08:21:03.129Z,12.30
2019-05-25T08:26:06.805Z,12.77
2019-05-25T08:31:10.408Z,13.03
2019-05-25T08:36:14.019Z,12.80
2019-05-25T08:41:17.697Z,13.77
2019-05-25T08:46:21.299Z,12.90
2019-05-25T08:51:24.912Z,12.37
2019-05-25T08:56:28.514Z,12.70
2019-05-25T09:01:32.201Z,12.63
2019-05-25T09:06:36.008Z,12.70
2019-05-25T09:11:39.641Z,13.70
2019-05-25T09:16:43.280Z,12.17
2019-05-25T09:22:01.518Z,12.60
2019-05-25T09:26:52.286Z,12.77
2019-05-25T09:31:55.945Z,13.27
2019-05-25T09:36:59.638Z,12.73
2019-05-25T09:42:03.311Z,12.57
2019-05-25T09:47:06.936Z,12.93
2019-05-25T09:52:10.531Z,12.33
2019-05-25T09:57:14.203Z,12.33
2019-05-25T10:02:17.849Z,12.53
2019-05-25T10:07:21.464Z,12.70
2019-05-25T10:12:25.114Z,14.20
2019-05-25T10:17:28.885Z,13.37
2019-05-25T10:22:32.495Z,13.30
2019-05-25T10:27:36.086Z,12.50
2019-05-25T10:32:39.699Z,13.33
2019-05-25T10:37:43.431Z,15.30
2019-05-25T10:42:47.085Z,12.57
2019-05-25T10:47:53.815Z,12.13
2019-05-25T10:52:58.246Z,12.40
2019-05-25T10:58:01.917Z,11.47
2019-05-25T11:03:05.591Z,11.33
2019-05-25T11:08:09.222Z,11.00
2019-05-25T11:13:12.854Z,12.30
2019-05-25T11:18:16.457Z,12.77
2019-05-25T11:23:20.054Z,13.00
2019-05-25T11:28:23.750Z,13.00
2019-05-25T11:33:27.564Z,13.13
2019-05-25T11:38:31.230Z,13.90
2019-05-25T11:43:34.846Z,12.90
2019-05-25T11:48:38.473Z,13.87
2019-05-25T11:53:42.110Z,13.03
2019-05-25T11:58:47.719Z,11.80
2019-05-25T12:03:50.968Z,12.20
2019-05-25T12:08:54.586Z,12.00
2019-05-25T12:13:58.183Z,10.73
2019-05-25T12:19:01.867Z,10.40
2019-05-25T12:24:05.834Z,5.23
2019-05-25T12:29:09.443Z,3.83
2019-05-25T12:34:13.060Z,2.70
2019-05-25T12:39:16.674Z,2.63
2019-05-25T12:44:20.347Z,3.27
2019-05-25T12:49:23.957Z,2.10
2019-05-25T12:54:27.635Z,2.03
2019-05-25T12:59:31.243Z,1.60
2019-05-25T13:04:34.890Z,3.17
2019-05-25T13:09:38.641Z,1.80
2019-05-25T13:14:42.241Z,2.60
2019-05-25T13:19:45.930Z,6.40
2019-05-25T13:24:49.759Z,3.40
2019-05-25T13:29:53.397Z,2.30
2019-05-25T13:34:57.008Z,2.97
2019-05-25T13:40:00.610Z,3.20
2019-05-25T13:45:06.555Z,3.70
2019-05-25T13:50:11.001Z,4.70
2019-05-25T13:55:14.847Z,4.80
2019-05-25T14:00:18.799Z,4.93
2019-05-25T14:05:22.405Z,5.00
2019-05-25T14:10:26.447Z,9.77
2019-05-25T14:15:30.071Z,6.47
2019-05-25T14:20:33.695Z,5.20
2019-05-25T14:25:37.334Z,5.90
2019-05-25T14:30:40.942Z,6.00
2019-05-25T14:35:44.561Z,5.10
2019-05-25T14:40:48.243Z,5.27
2019-05-25T14:45:53.345Z,4.90
2019-05-25T14:50:57.307Z,4.80
2019-05-25T14:56:00.908Z,4.90
2019-05-25T15:01:04.582Z,5.23
2019-05-25T15:06:08.265Z,5.40
2019-05-25T15:11:11.871Z,6.37
2019-05-25T15:16:15.496Z,5.70
2019-05-25T15:21:19.499Z,6.80
2019-05-25T15:26:23.227Z,6.20
2019-05-25T15:31:26.910Z,5.90
2019-05-25T15:36:30.566Z,9.67
2019-05-25T15:41:34.217Z,6.97
2019-05-25T15:46:37.836Z,6.60
2019-05-25T15:51:41.499Z,5.47
2019-05-25T15:56:45.170Z,6.37
2019-05-25T16:01:48.824Z,5.90
2019-05-25T16:06:52.451Z,8.17
2019-05-25T16:11:56.068Z,6.00
2019-05-25T16:16:59.683Z,6.57
2019-05-25T16:22:03.362Z,5.83
2019-05-25T16:27:07.056Z,5.83
2019-05-25T16:32:10.661Z,6.27
2019-05-25T16:37:14.382Z,6.07
2019-05-25T16:42:19.280Z,6.40
2019-05-25T16:47:22.921Z,6.37
2019-05-25T16:52:26.507Z,6.50
2019-05-25T16:57:30.153Z,6.80
2019-05-25T17:02:33.822Z,5.10
2019-05-25T17:07:37.443Z,5.47
2019-05-25T17:12:41.110Z,5.40
2019-05-25T17:17:44.690Z,5.13
2019-05-25T17:22:48.383Z,6.10
2019-05-25T17:27:55.154Z,6.40
2019-05-25T17:32:58.775Z,9.40
2019-05-25T17:38:02.464Z,10.07
2019-05-25T17:43:06.217Z,22.40
2019-05-25T17:48:09.979Z,15.47
2019-05-25T17:53:13.606Z,9.40
2019-05-25T17:58:17.296Z,8.60
2019-05-25T18:03:20.982Z,8.40
2019-05-25T18:08:24.730Z,8.87
2019-05-25T18:13:29.197Z,8.53
2019-05-25T18:18:32.975Z,9.03
2019-05-25T18:23:36.752Z,9.10
2019-05-25T18:28:40.310Z,9.10
2019-05-25T18:33:43.925Z,10.33
2019-05-25T18:38:47.526Z,9.17
2019-05-25T18:43:51.150Z,10.30
2019-05-25T18:48:54.750Z,9.47
2019-05-25T18:53:58.381Z,10.10
2019-05-25T18:59:02.003Z,10.17
2019-05-25T19:04:05.882Z,11.23
2019-05-25T19:09:11.126Z,18.90
2019-05-25T19:14:14.734Z,14.60
2019-05-25T19:19:18.400Z,14.43
2019-05-25T19:24:22.070Z,13.37
2019-05-25T19:29:25.712Z,13.77
2019-05-25T19:34:29.310Z,15.57
2019-05-25T19:39:32.977Z,15.27
2019-05-25T19:44:36.606Z,12.57
2019-05-25T19:49:40.212Z,12.40
2019-05-25T19:54:43.850Z,14.03
2019-05-25T19:59:47.512Z,11.83
2019-05-25T20:04:51.193Z,12.60
2019-05-25T20:09:54.802Z,12.97
2019-05-25T20:14:58.403Z,14.20
2019-05-25T20:20:02.064Z,13.57
2019-05-25T20:25:06.822Z,13.87
2019-05-25T20:30:10.938Z,13.30
2019-05-25T20:35:18.907Z,14.70
2019-05-25T20:40:20.007Z,13.80
2019-05-25T20:45:23.614Z,15.50
2019-05-25T20:50:27.292Z,17.47
2019-05-25T20:55:31.902Z,17.23
2019-05-25T21:00:35.518Z,17.27
2019-05-25T21:05:49.840Z,16.40
2019-05-25T21:10:46.350Z,16.30
2019-05-25T21:15:52.603Z,16.80
2019-05-25T21:20:56.218Z,17.20
2019-05-25T21:25:59.825Z,18.20
2019-05-25T21:31:03.575Z,19.77
2019-05-25T21:36:09.231Z,21.03
2019-05-25T21:41:14.422Z,18.23
2019-05-25T21:46:20.810Z,17.93
2019-05-25T21:51:24.653Z,18.90
2019-05-25T21:56:28.261Z,20.43
2019-05-25T22:01:36.142Z,22.70
2019-05-25T22:06:42.959Z,21.20
2019-05-25T22:11:54.852Z,20.47
2019-05-25T22:16:59.655Z,22.80
2019-05-25T22:22:03.437Z,21.53
2019-05-25T22:27:07.068Z,21.30
2019-05-25T22:32:15.921Z,30.97
2019-05-25T22:37:23.190Z,22.43
2019-05-25T22:42:26.874Z,23.97
2019-05-25T22:47:33.680Z,21.07
2019-05-25T22:52:37.887Z,22.20
2019-05-25T22:57:44.575Z,22.00
2019-05-25T23:02:49.953Z,22.27
2019-05-25T23:07:55.324Z,22.47
2019-05-25T23:13:05.096Z,20.47
2019-05-25T23:18:09.282Z,20.60
2019-05-25T23:23:14.621Z,22.80
2019-05-25T23:28:29.042Z,26.40
2019-05-25T23:33:35.545Z,32.40
2019-05-25T23:38:39.658Z,26.57
2019-05-25T23:43:47.534Z,20.93
2019-05-25T23:48:51.132Z,21.27
2019-05-25T23:53:55.150Z,22.70
2019-05-25T23:59:00.761Z,21.30
